sensor_id;sensor_type;location;lat;lon;timestamp;pressure;altitude;pressure_sealevel;temperature;humidity
53619;BME280;39505;53.040;18.488;2023-02-14T00:00:04;103098.28;;;3.61;100.00
53619;BME280;39505;53.040;18.488;2023-02-14T00:00:17;103101.84;;;3.61;100.00
53619;BME280;39505;53.040;18.488;2023-02-14T00:00:50;103099.19;;;3.61;100.00
53619;BME280;39505;53.040;18.488;2023-02-14T00:01:12;103098.25;;;3.62;100.00
53619;BME280;39505;53.040;18.488;2023-02-14T00:01:25;103093.81;;;3.63;100.00
53619;BME280;39505;53.040;18.488;2023-02-14T00:01:38;103100.00;;;3.63;100.00
53619;BME280;39505;53.040;18.488;2023-02-14T00:01:50;103100.00;;;3.63;100.00
53619;BME280;39505;53.040;18.488;2023-02-14T00:02:03;103094.69;;;3.63;100.00
53619;BME280;39505;53.040;18.488;2023-02-14T00:02:16;103098.25;;;3.64;100.00
53619;BME280;39505;53.040;18.488;2023-02-14T00:02:30;103096.47;;;3.64;100.00
53619;BME280;39505;53.040;18.488;2023-02-14T00:02:44;103091.16;;;3.64;100.00
53619;BME280;39505;53.040;18.488;2023-02-14T00:02:56;103093.78;;;3.66;100.00
53619;BME280;39505;53.040;18.488;2023-02-14T00:03:09;103089.38;;;3.63;100.00
53619;BME280;39505;53.040;18.488;2023-02-14T00:03:22;103104.41;;;3.66;100.00
53619;BME280;39505;53.040;18.488;2023-02-14T00:03:35;103098.19;;;3.65;100.00
53619;BME280;39505;53.040;18.488;2023-02-14T00:03:48;103099.97;;;3.66;100.00
53619;BME280;39505;53.040;18.488;2023-02-14T00:04:02;103098.16;;;3.67;100.00
53619;BME280;39505;53.040;18.488;2023-02-14T00:04:16;103100.91;;;3.64;100.00
53619;BME280;39505;53.040;18.488;2023-02-14T00:04:30;103099.97;;;3.65;100.00
53619;BME280;39505;53.040;18.488;2023-02-14T00:04:43;103096.47;;;3.64;100.00
53619;BME280;39505;53.040;18.488;2023-02-14T00:04:58;103096.47;;;3.64;100.00
53619;BME280;39505;53.040;18.488;2023-02-14T00:05:12;103098.19;;;3.65;100.00
53619;BME280;39505;53.040;18.488;2023-02-14T00:05:25;103100.84;;;3.65;100.00
53619;BME280;39505;53.040;18.488;2023-02-14T00:05:38;103099.97;;;3.65;100.00
53619;BME280;39505;53.040;18.488;2023-02-14T00:05:50;103098.19;;;3.65;100.00
53619;BME280;39505;53.040;18.488;2023-02-14T00:06:05;103095.50;;;3.67;100.00
53619;BME280;39505;53.040;18.488;2023-02-14T00:06:18;103098.16;;;3.67;100.00
53619;BME280;39505;53.040;18.488;2023-02-14T00:06:31;103101.75;;;3.66;100.00
53619;BME280;39505;53.040;18.488;2023-02-14T00:06:46;103097.31;;;3.66;100.00
53619;BME280;39505;53.040;18.488;2023-02-14T00:07:01;103097.31;;;3.66;100.00
53619;BME280;39505;53.040;18.488;2023-02-14T00:07:13;103099.09;;;3.66;100.00
53619;BME280;39505;53.040;18.488;2023-02-14T00:07:26;103095.50;;;3.67;100.00
53619;BME280;39505;53.040;18.488;2023-02-14T00:07:39;103092.00;;;3.66;100.00
53619;BME280;39505;53.040;18.488;2023-02-14T00:07:52;103098.16;;;3.67;100.00
53619;BME280;39505;53.040;18.488;2023-02-14T00:08:06;103096.44;;;3.66;100.00
53619;BME280;39505;53.040;18.488;2023-02-14T00:08:19;103100.81;;;3.67;100.00
53619;BME280;39505;53.040;18.488;2023-02-14T00:08:31;103100.81;;;3.67;100.00
53619;BME280;39505;53.040;18.488;2023-02-14T00:08:44;103099.09;;;3.66;100.00
53619;BME280;39505;53.040;18.488;2023-02-14T00:08:58;103107.03;;;3.66;100.00
53619;BME280;39505;53.040;18.488;2023-02-14T00:09:13;103099.09;;;3.66;100.00
53619;BME280;39505;53.040;18.488;2023-02-14T00:09:26;103104.41;;;3.66;100.00
53619;BME280;39505;53.040;18.488;2023-02-14T00:09:40;103103.50;;;3.65;100.00
53619;BME280;39505;53.040;18.488;2023-02-14T00:09:52;103099.09;;;3.66;100.00
53619;BME280;39505;53.040;18.488;2023-02-14T00:10:06;103101.75;;;3.64;100.00
53619;BME280;39505;53.040;18.488;2023-02-14T00:10:20;103104.41;;;3.66;100.00
53619;BME280;39505;53.040;18.488;2023-02-14T00:10:32;103100.84;;;3.65;100.00
53619;BME280;39505;53.040;18.488;2023-02-14T00:10:45;103105.25;;;3.66;100.00
53619;BME280;39505;53.040;18.488;2023-02-14T00:10:58;103105.25;;;3.66;100.00
53619;BME280;39505;53.040;18.488;2023-02-14T00:11:13;103107.03;;;3.66;100.00
53619;BME280;39505;53.040;18.488;2023-02-14T00:11:27;103105.25;;;3.66;100.00
53619;BME280;39505;53.040;18.488;2023-02-14T00:11:41;103100.91;;;3.64;100.00
53619;BME280;39505;53.040;18.488;2023-02-14T00:11:55;103100.81;;;3.67;100.00
53619;BME280;39505;53.040;18.488;2023-02-14T00:12:07;103098.16;;;3.67;100.00
53619;BME280;39505;53.040;18.488;2023-02-14T00:12:23;103108.78;;;3.67;100.00
53619;BME280;39505;53.040;18.488;2023-02-14T00:12:36;103108.78;;;3.67;100.00
53619;BME280;39505;53.040;18.488;2023-02-14T00:12:49;103110.53;;;3.68;100.00
53619;BME280;39505;53.040;18.488;2023-02-14T00:13:02;103112.31;;;3.67;100.00
53619;BME280;39505;53.040;18.488;2023-02-14T00:13:15;103109.66;;;3.67;100.00
53619;BME280;39505;53.040;18.488;2023-02-14T00:13:28;103108.78;;;3.67;100.00
53619;BME280;39505;53.040;18.488;2023-02-14T00:13:41;103111.41;;;3.68;100.00
53619;BME280;39505;53.040;18.488;2023-02-14T00:14:15;103108.78;;;3.67;100.00
53619;BME280;39505;53.040;18.488;2023-02-14T00:14:46;103108.75;;;3.68;100.00
53619;BME280;39505;53.040;18.488;2023-02-14T00:15:18;103113.19;;;3.68;100.00
53619;BME280;39505;53.040;18.488;2023-02-14T00:15:33;103105.25;;;3.68;100.00
53619;BME280;39505;53.040;18.488;2023-02-14T00:15:46;103100.81;;;3.67;100.00
53619;BME280;39505;53.040;18.488;2023-02-14T00:15:59;103111.44;;;3.67;100.00
53619;BME280;39505;53.040;18.488;2023-02-14T00:16:12;103104.31;;;3.69;100.00
53619;BME280;39505;53.040;18.488;2023-02-14T00:16:25;103108.78;;;3.67;100.00
53619;BME280;39505;53.040;18.488;2023-02-14T00:16:38;103105.25;;;3.68;100.00
53619;BME280;39505;53.040;18.488;2023-02-14T00:16:50;103099.09;;;3.66;100.00
53619;BME280;39505;53.040;18.488;2023-02-14T00:17:03;103100.81;;;3.67;100.00
53619;BME280;39505;53.040;18.488;2023-02-14T00:17:16;103107.91;;;3.68;100.00
53619;BME280;39505;53.040;18.488;2023-02-14T00:17:30;103107.03;;;3.66;100.00
53619;BME280;39505;53.040;18.488;2023-02-14T00:17:43;103109.66;;;3.67;100.00
53619;BME280;39505;53.040;18.488;2023-02-14T00:17:56;103107.00;;;3.67;100.00
53619;BME280;39505;53.040;18.488;2023-02-14T00:18:11;103104.41;;;3.66;100.00
53619;BME280;39505;53.040;18.488;2023-02-14T00:18:24;103113.19;;;3.68;100.00
53619;BME280;39505;53.040;18.488;2023-02-14T00:18:58;103106.09;;;3.68;100.00
53619;BME280;39505;53.040;18.488;2023-02-14T00:19:19;103103.44;;;3.68;100.00
53619;BME280;39505;53.040;18.488;2023-02-14T00:19:32;103102.59;;;3.68;100.00
53619;BME280;39505;53.040;18.488;2023-02-14T00:19:46;103105.25;;;3.68;100.00
53619;BME280;39505;53.040;18.488;2023-02-14T00:19:59;103104.34;;;3.67;100.00
53619;BME280;39505;53.040;18.488;2023-02-14T00:20:13;103102.59;;;3.68;100.00
53619;BME280;39505;53.040;18.488;2023-02-14T00:20:26;103096.38;;;3.67;100.00
53619;BME280;39505;53.040;18.488;2023-02-14T00:20:39;103104.34;;;3.67;100.00
53619;BME280;39505;53.040;18.488;2023-02-14T00:20:52;103106.13;;;3.67;100.00
53619;BME280;39505;53.040;18.488;2023-02-14T00:21:05;103098.16;;;3.67;100.00
53619;BME280;39505;53.040;18.488;2023-02-14T00:21:17;103107.00;;;3.67;100.00
53619;BME280;39505;53.040;18.488;2023-02-14T00:21:31;103102.63;;;3.65;100.00
53619;BME280;39505;53.040;18.488;2023-02-14T00:21:44;103107.00;;;3.67;100.00
53619;BME280;39505;53.040;18.488;2023-02-14T00:22:00;103098.25;;;3.64;100.00
53619;BME280;39505;53.040;18.488;2023-02-14T00:22:13;103102.59;;;3.68;100.00
53619;BME280;39505;53.040;18.488;2023-02-14T00:22:26;103107.00;;;3.67;100.00
53619;BME280;39505;53.040;18.488;2023-02-14T00:22:39;103102.59;;;3.68;100.00
53619;BME280;39505;53.040;18.488;2023-02-14T00:22:52;103100.81;;;3.67;100.00
53619;BME280;39505;53.040;18.488;2023-02-14T00:23:04;103102.53;;;3.70;100.00
53619;BME280;39505;53.040;18.488;2023-02-14T00:23:18;103103.44;;;3.68;100.00
53619;BME280;39505;53.040;18.488;2023-02-14T00:23:31;103099.94;;;3.68;100.00
53619;BME280;39505;53.040;18.488;2023-02-14T00:23:44;103106.09;;;3.68;100.00
53619;BME280;39505;53.040;18.488;2023-02-14T00:23:57;103107.91;;;3.68;100.00
53619;BME280;39505;53.040;18.488;2023-02-14T00:24:11;103102.59;;;3.68;100.00
53619;BME280;39505;53.040;18.488;2023-02-14T00:24:25;103099.94;;;3.68;100.00
53619;BME280;39505;53.040;18.488;2023-02-14T00:24:38;103105.25;;;3.68;100.00
53619;BME280;39505;53.040;18.488;2023-02-14T00:24:52;103105.25;;;3.68;100.00
53619;BME280;39505;53.040;18.488;2023-02-14T00:25:06;103100.81;;;3.67;100.00
53619;BME280;39505;53.040;18.488;2023-02-14T00:25:18;103097.28;;;3.68;100.00
53619;BME280;39505;53.040;18.488;2023-02-14T00:25:32;103099.94;;;3.68;100.00
53619;BME280;39505;53.040;18.488;2023-02-14T00:25:45;103102.59;;;3.68;100.00
53619;BME280;39505;53.040;18.488;2023-02-14T00:25:58;103104.34;;;3.67;100.00
53619;BME280;39505;53.040;18.488;2023-02-14T00:26:14;103103.44;;;3.68;100.00
53619;BME280;39505;53.040;18.488;2023-02-14T00:26:28;103102.59;;;3.68;100.00
53619;BME280;39505;53.040;18.488;2023-02-14T00:26:41;103103.44;;;3.68;100.00
53619;BME280;39505;53.040;18.488;2023-02-14T00:26:54;103095.59;;;3.64;100.00
53619;BME280;39505;53.040;18.488;2023-02-14T00:27:07;103100.81;;;3.68;100.00
53619;BME280;39505;53.040;18.488;2023-02-14T00:27:20;103101.66;;;3.69;100.00
53619;BME280;39505;53.040;18.488;2023-02-14T00:27:33;103103.44;;;3.70;100.00
53619;BME280;39505;53.040;18.488;2023-02-14T00:27:46;103099.94;;;3.68;100.00
53619;BME280;39505;53.040;18.488;2023-02-14T00:27:59;103106.09;;;3.68;100.00
53619;BME280;39505;53.040;18.488;2023-02-14T00:28:12;103100.81;;;3.67;100.00
53619;BME280;39505;53.040;18.488;2023-02-14T00:28:25;103104.31;;;3.69;100.00
53619;BME280;39505;53.040;18.488;2023-02-14T00:28:38;103101.75;;;3.66;100.00
53619;BME280;39505;53.040;18.488;2023-02-14T00:28:51;103104.41;;;3.66;100.00
53619;BME280;39505;53.040;18.488;2023-02-14T00:29:03;103105.25;;;3.66;100.00
53619;BME280;39505;53.040;18.488;2023-02-14T00:29:18;103106.13;;;3.67;100.00
53619;BME280;39505;53.040;18.488;2023-02-14T00:29:32;103104.41;;;3.66;100.00
53619;BME280;39505;53.040;18.488;2023-02-14T00:29:45;103107.03;;;3.66;100.00
53619;BME280;39505;53.040;18.488;2023-02-14T00:29:58;103109.69;;;3.66;100.00
53619;BME280;39505;53.040;18.488;2023-02-14T00:30:14;103105.28;;;3.65;100.00
53619;BME280;39505;53.040;18.488;2023-02-14T00:30:27;103110.56;;;3.66;100.00
53619;BME280;39505;53.040;18.488;2023-02-14T00:30:40;103105.28;;;3.65;100.00
53619;BME280;39505;53.040;18.488;2023-02-14T00:30:55;103107.94;;;3.65;100.00
53619;BME280;39505;53.040;18.488;2023-02-14T00:31:09;103107.06;;;3.64;100.00
53619;BME280;39505;53.040;18.488;2023-02-14T00:31:23;103118.53;;;3.65;100.00
53619;BME280;39505;53.040;18.488;2023-02-14T00:31:36;103114.09;;;3.65;100.00
53619;BME280;39505;53.040;18.488;2023-02-14T00:31:49;103113.25;;;3.65;100.00
53619;BME280;39505;53.040;18.488;2023-02-14T00:32:03;103107.06;;;3.64;100.00
53619;BME280;39505;53.040;18.488;2023-02-14T00:32:16;103110.59;;;3.65;100.00
53619;BME280;39505;53.040;18.488;2023-02-14T00:32:30;103113.31;;;3.62;100.00
53619;BME280;39505;53.040;18.488;2023-02-14T00:32:43;103113.25;;;3.65;100.00
53619;BME280;39505;53.040;18.488;2023-02-14T00:32:55;103115.00;;;3.66;100.00
53619;BME280;39505;53.040;18.488;2023-02-14T00:33:08;103114.16;;;3.64;100.00
53619;BME280;39505;53.040;18.488;2023-02-14T00:33:21;103107.94;;;3.65;100.00
53619;BME280;39505;53.040;18.488;2023-02-14T00:33:34;103113.25;;;3.65;100.00
53619;BME280;39505;53.040;18.488;2023-02-14T00:33:47;103114.16;;;3.64;100.00
53619;BME280;39505;53.040;18.488;2023-02-14T00:34:00;103110.59;;;3.65;100.00
53619;BME280;39505;53.040;18.488;2023-02-14T00:34:15;103114.16;;;3.64;100.00
53619;BME280;39505;53.040;18.488;2023-02-14T00:34:28;103111.53;;;3.62;100.00
53619;BME280;39505;53.040;18.488;2023-02-14T00:34:41;103112.41;;;3.63;100.00
53619;BME280;39505;53.040;18.488;2023-02-14T00:34:54;103114.19;;;3.62;100.00
53619;BME280;39505;53.040;18.488;2023-02-14T00:35:07;103115.03;;;3.63;100.00
53619;BME280;39505;53.040;18.488;2023-02-14T00:35:23;103114.19;;;3.62;100.00
53619;BME280;39505;53.040;18.488;2023-02-14T00:35:36;103119.50;;;3.62;100.00
53619;BME280;39505;53.040;18.488;2023-02-14T00:35:49;103112.44;;;3.61;100.00
53619;BME280;39505;53.040;18.488;2023-02-14T00:36:03;103111.56;;;3.61;100.00
53619;BME280;39505;53.040;18.488;2023-02-14T00:36:16;103114.19;;;3.62;100.00
53619;BME280;39505;53.040;18.488;2023-02-14T00:36:31;103112.41;;;3.63;100.00
53619;BME280;39505;53.040;18.488;2023-02-14T00:36:45;103111.53;;;3.62;100.00
53619;BME280;39505;53.040;18.488;2023-02-14T00:37:00;103108.06;;;3.59;100.00
53619;BME280;39505;53.040;18.488;2023-02-14T00:37:13;103110.66;;;3.62;100.00
53619;BME280;39505;53.040;18.488;2023-02-14T00:37:26;103108.91;;;3.61;100.00
53619;BME280;39505;53.040;18.488;2023-02-14T00:37:39;103108.00;;;3.62;100.00
53619;BME280;39505;53.040;18.488;2023-02-14T00:37:52;103112.44;;;3.61;100.00
53619;BME280;39505;53.040;18.488;2023-02-14T00:38:05;103111.56;;;3.61;100.00
53619;BME280;39505;53.040;18.488;2023-02-14T00:38:17;103106.25;;;3.61;100.00
53619;BME280;39505;53.040;18.488;2023-02-14T00:38:30;103112.47;;;3.60;100.00
53619;BME280;39505;53.040;18.488;2023-02-14T00:38:44;103110.69;;;3.60;100.00
53619;BME280;39505;53.040;18.488;2023-02-14T00:38:57;103116.00;;;3.60;100.00
53619;BME280;39505;53.040;18.488;2023-02-14T00:39:11;103109.81;;;3.60;100.00
53619;BME280;39505;53.040;18.488;2023-02-14T00:39:24;103106.28;;;3.59;100.00
53619;BME280;39505;53.040;18.488;2023-02-14T00:39:38;103108.06;;;3.59;100.00
53619;BME280;39505;53.040;18.488;2023-02-14T00:39:50;103108.06;;;3.59;100.00
53619;BME280;39505;53.040;18.488;2023-02-14T00:40:05;103104.56;;;3.57;100.00
53619;BME280;39505;53.040;18.488;2023-02-14T00:40:19;103101.91;;;3.57;100.00
53619;BME280;39505;53.040;18.488;2023-02-14T00:40:32;103106.22;;;3.62;100.00
53619;BME280;39505;53.040;18.488;2023-02-14T00:40:45;103107.16;;;3.61;100.00
53619;BME280;39505;53.040;18.488;2023-02-14T00:40:57;103106.25;;;3.61;100.00
53619;BME280;39505;53.040;18.488;2023-02-14T00:41:11;103100.06;;;3.60;100.00
53619;BME280;39505;53.040;18.488;2023-02-14T00:41:30;103105.44;;;3.57;100.00
53619;BME280;39505;53.040;18.488;2023-02-14T00:41:44;103109.81;;;3.60;100.00
53619;BME280;39505;53.040;18.488;2023-02-14T00:41:58;103104.50;;;3.60;100.00
53619;BME280;39505;53.040;18.488;2023-02-14T00:42:10;103110.69;;;3.60;100.00
53619;BME280;39505;53.040;18.488;2023-02-14T00:42:25;103102.72;;;3.60;100.00
53619;BME280;39505;53.040;18.488;2023-02-14T00:42:38;103108.94;;;3.59;100.00
53619;BME280;39505;53.040;18.488;2023-02-14T00:42:51;103099.22;;;3.58;100.00
53619;BME280;39505;53.040;18.488;2023-02-14T00:43:03;103106.31;;;3.58;100.00
53619;BME280;39505;53.040;18.488;2023-02-14T00:43:17;103103.66;;;3.59;100.00
53619;BME280;39505;53.040;18.488;2023-02-14T00:43:30;103101.91;;;3.57;100.00
53619;BME280;39505;53.040;18.488;2023-02-14T00:43:44;103106.31;;;3.58;100.00
53619;BME280;39505;53.040;18.488;2023-02-14T00:43:57;103104.56;;;3.57;100.00
53619;BME280;39505;53.040;18.488;2023-02-14T00:44:11;103105.41;;;3.59;100.00
53619;BME280;39505;53.040;18.488;2023-02-14T00:44:24;103097.50;;;3.57;100.00
53619;BME280;39505;53.040;18.488;2023-02-14T00:44:38;103105.41;;;3.59;100.00
53619;BME280;39505;53.040;18.488;2023-02-14T00:44:51;103102.75;;;3.59;100.00
53619;BME280;39505;53.040;18.488;2023-02-14T00:45:04;103105.44;;;3.57;100.00
53619;BME280;39505;53.040;18.488;2023-02-14T00:45:17;103105.44;;;3.57;100.00
53619;BME280;39505;53.040;18.488;2023-02-14T00:45:31;103106.34;;;3.56;100.00
53619;BME280;39505;53.040;18.488;2023-02-14T00:45:44;103101.91;;;3.57;100.00
53619;BME280;39505;53.040;18.488;2023-02-14T00:45:57;103102.81;;;3.56;100.00
53619;BME280;39505;53.040;18.488;2023-02-14T00:46:10;103095.72;;;3.58;100.00
53619;BME280;39505;53.040;18.488;2023-02-14T00:46:24;103099.25;;;3.57;100.00
53619;BME280;39505;53.040;18.488;2023-02-14T00:46:37;103101.91;;;3.57;100.00
53619;BME280;39505;53.040;18.488;2023-02-14T00:46:50;103104.56;;;3.57;100.00
53619;BME280;39505;53.040;18.488;2023-02-14T00:47:03;103109.84;;;3.57;100.00
53619;BME280;39505;53.040;18.488;2023-02-14T00:47:16;103102.81;;;3.56;100.00
53619;BME280;39505;53.040;18.488;2023-02-14T00:47:31;103103.69;;;3.56;100.00
53619;BME280;39505;53.040;18.488;2023-02-14T00:47:44;103098.44;;;3.53;100.00
53619;BME280;39505;53.040;18.488;2023-02-14T00:47:56;103104.59;;;3.55;100.00
53619;BME280;39505;53.040;18.488;2023-02-14T00:48:09;103106.34;;;3.55;100.00
53619;BME280;39505;53.040;18.488;2023-02-14T00:48:22;103106.34;;;3.55;100.00
53619;BME280;39505;53.040;18.488;2023-02-14T00:48:35;103107.25;;;3.55;100.00
53619;BME280;39505;53.040;18.488;2023-02-14T00:48:48;103108.13;;;3.56;100.00
53619;BME280;39505;53.040;18.488;2023-02-14T00:49:01;103109.00;;;3.55;100.00
53619;BME280;39505;53.040;18.488;2023-02-14T00:49:14;103104.56;;;3.57;100.00
53619;BME280;39505;53.040;18.488;2023-02-14T00:49:27;103106.34;;;3.56;100.00
53619;BME280;39505;53.040;18.488;2023-02-14T00:49:40;103103.69;;;3.55;100.00
53619;BME280;39505;53.040;18.488;2023-02-14T00:49:53;103108.13;;;3.56;100.00
53619;BME280;39505;53.040;18.488;2023-02-14T00:50:06;103104.56;;;3.57;100.00
53619;BME280;39505;53.040;18.488;2023-02-14T00:50:19;103109.00;;;3.56;100.00
53619;BME280;39505;53.040;18.488;2023-02-14T00:50:33;103105.47;;;3.56;100.00
53619;BME280;39505;53.040;18.488;2023-02-14T00:50:46;103108.13;;;3.56;100.00
53619;BME280;39505;53.040;18.488;2023-02-14T00:50:59;103106.34;;;3.55;100.00
53619;BME280;39505;53.040;18.488;2023-02-14T00:51:13;103109.00;;;3.56;100.00
53619;BME280;39505;53.040;18.488;2023-02-14T00:51:26;103109.84;;;3.57;100.00
53619;BME280;39505;53.040;18.488;2023-02-14T00:51:39;103103.69;;;3.56;100.00
53619;BME280;39505;53.040;18.488;2023-02-14T00:51:52;103108.09;;;3.57;100.00
53619;BME280;39505;53.040;18.488;2023-02-14T00:52:07;103109.84;;;3.57;100.00
53619;BME280;39505;53.040;18.488;2023-02-14T00:52:20;103098.38;;;3.56;100.00
53619;BME280;39505;53.040;18.488;2023-02-14T00:52:33;103106.31;;;3.58;100.00
53619;BME280;39505;53.040;18.488;2023-02-14T00:52:46;103104.56;;;3.57;100.00
53619;BME280;39505;53.040;18.488;2023-02-14T00:52:59;103108.13;;;3.56;100.00
53619;BME280;39505;53.040;18.488;2023-02-14T00:53:11;103109.00;;;3.56;100.00
53619;BME280;39505;53.040;18.488;2023-02-14T00:53:24;103105.47;;;3.56;100.00
53619;BME280;39505;53.040;18.488;2023-02-14T00:53:39;103106.34;;;3.56;100.00
53619;BME280;39505;53.040;18.488;2023-02-14T00:53:51;103109.91;;;3.55;100.00
53619;BME280;39505;53.040;18.488;2023-02-14T00:54:04;103106.34;;;3.55;100.00
53619;BME280;39505;53.040;18.488;2023-02-14T00:54:17;103108.13;;;3.56;100.00
53619;BME280;39505;53.040;18.488;2023-02-14T00:54:30;103104.63;;;3.54;100.00
53619;BME280;39505;53.040;18.488;2023-02-14T00:54:44;103101.06;;;3.55;100.00
53619;BME280;39505;53.040;18.488;2023-02-14T00:54:57;103108.13;;;3.56;100.00
53619;BME280;39505;53.040;18.488;2023-02-14T00:55:10;103108.13;;;3.56;100.00
53619;BME280;39505;53.040;18.488;2023-02-14T00:55:23;103109.84;;;3.57;100.00
53619;BME280;39505;53.040;18.488;2023-02-14T00:55:35;103105.50;;;3.54;100.00
53619;BME280;39505;53.040;18.488;2023-02-14T00:55:48;103111.66;;;3.55;100.00
53619;BME280;39505;53.040;18.488;2023-02-14T00:56:02;103110.78;;;3.56;100.00
53619;BME280;39505;53.040;18.488;2023-02-14T00:56:15;103107.25;;;3.55;100.00
53619;BME280;39505;53.040;18.488;2023-02-14T00:56:30;103107.25;;;3.55;100.00
53619;BME280;39505;53.040;18.488;2023-02-14T00:56:43;103111.66;;;3.55;100.00
53619;BME280;39505;53.040;18.488;2023-02-14T00:56:56;103107.28;;;3.54;100.00
53619;BME280;39505;53.040;18.488;2023-02-14T00:57:10;103111.66;;;3.55;100.00
53619;BME280;39505;53.040;18.488;2023-02-14T00:57:23;103107.28;;;3.54;100.00
53619;BME280;39505;53.040;18.488;2023-02-14T00:57:36;103116.97;;;3.55;100.00
53619;BME280;39505;53.040;18.488;2023-02-14T00:57:49;103113.44;;;3.56;100.00
53619;BME280;39505;53.040;18.488;2023-02-14T00:58:02;103111.66;;;3.55;100.00
53619;BME280;39505;53.040;18.488;2023-02-14T00:58:15;103117.88;;;3.55;100.00
53619;BME280;39505;53.040;18.488;2023-02-14T00:58:28;103106.44;;;3.52;100.00
53619;BME280;39505;53.040;18.488;2023-02-14T00:58:41;103112.56;;;3.55;100.00
53619;BME280;39505;53.040;18.488;2023-02-14T00:58:54;103109.91;;;3.55;100.00
53619;BME280;39505;53.040;18.488;2023-02-14T00:59:07;103109.94;;;3.54;100.00
53619;BME280;39505;53.040;18.488;2023-02-14T00:59:21;103109.00;;;3.55;100.00
53619;BME280;39505;53.040;18.488;2023-02-14T00:59:34;103114.31;;;3.55;100.00
53619;BME280;39505;53.040;18.488;2023-02-14T00:59:46;103111.66;;;3.55;100.00
53619;BME280;39505;53.040;18.488;2023-02-14T00:59:59;103111.66;;;3.56;100.00
53619;BME280;39505;53.040;18.488;2023-02-14T01:00:13;103111.66;;;3.55;100.00
53619;BME280;39505;53.040;18.488;2023-02-14T01:00:26;103115.16;;;3.57;100.00
53619;BME280;39505;53.040;18.488;2023-02-14T01:00:39;103115.16;;;3.57;100.00
53619;BME280;39505;53.040;18.488;2023-02-14T01:00:53;103115.16;;;3.57;100.00
53619;BME280;39505;53.040;18.488;2023-02-14T01:01:06;103113.44;;;3.56;100.00
53619;BME280;39505;53.040;18.488;2023-02-14T01:01:20;103116.97;;;3.55;100.00
53619;BME280;39505;53.040;18.488;2023-02-14T01:01:33;103106.34;;;3.56;100.00
53619;BME280;39505;53.040;18.488;2023-02-14T01:01:45;103116.06;;;3.56;100.00
53619;BME280;39505;53.040;18.488;2023-02-14T01:01:59;103109.91;;;3.55;100.00
53619;BME280;39505;53.040;18.488;2023-02-14T01:02:12;103111.66;;;3.55;100.00
53619;BME280;39505;53.040;18.488;2023-02-14T01:02:25;103114.31;;;3.55;100.00
53619;BME280;39505;53.040;18.488;2023-02-14T01:02:38;103108.19;;;3.53;100.00
53619;BME280;39505;53.040;18.488;2023-02-14T01:02:50;103112.56;;;3.55;100.00
53619;BME280;39505;53.040;18.488;2023-02-14T01:03:04;103109.00;;;3.55;100.00
53619;BME280;39505;53.040;18.488;2023-02-14T01:03:18;103114.31;;;3.55;100.00
53619;BME280;39505;53.040;18.488;2023-02-14T01:03:31;103105.53;;;3.53;100.00
53619;BME280;39505;53.040;18.488;2023-02-14T01:03:44;103110.78;;;3.54;100.00
53619;BME280;39505;53.040;18.488;2023-02-14T01:03:57;103109.06;;;3.53;100.00
53619;BME280;39505;53.040;18.488;2023-02-14T01:04:11;103109.94;;;3.54;100.00
53619;BME280;39505;53.040;18.488;2023-02-14T01:04:24;103113.50;;;3.53;100.00
53619;BME280;39505;53.040;18.488;2023-02-14T01:04:37;103109.94;;;3.52;100.00
53619;BME280;39505;53.040;18.488;2023-02-14T01:04:50;103114.38;;;3.53;100.00
53619;BME280;39505;53.040;18.488;2023-02-14T01:05:03;103113.50;;;3.53;100.00
53619;BME280;39505;53.040;18.488;2023-02-14T01:05:16;103109.94;;;3.52;100.00
53619;BME280;39505;53.040;18.488;2023-02-14T01:05:30;103111.72;;;3.52;100.00
53619;BME280;39505;53.040;18.488;2023-02-14T01:05:43;103111.72;;;3.52;100.00
53619;BME280;39505;53.040;18.488;2023-02-14T01:05:55;103103.78;;;3.52;100.00
53619;BME280;39505;53.040;18.488;2023-02-14T01:06:09;103106.44;;;3.52;100.00
53619;BME280;39505;53.040;18.488;2023-02-14T01:06:22;103109.94;;;3.52;100.00
53619;BME280;39505;53.040;18.488;2023-02-14T01:06:35;103106.44;;;3.52;100.00
53619;BME280;39505;53.040;18.488;2023-02-14T01:06:48;103113.50;;;3.53;100.00
53619;BME280;39505;53.040;18.488;2023-02-14T01:07:01;103108.19;;;3.53;100.00
53619;BME280;39505;53.040;18.488;2023-02-14T01:07:15;103108.19;;;3.53;100.00
53619;BME280;39505;53.040;18.488;2023-02-14T01:07:29;103113.50;;;3.53;100.00
53619;BME280;39505;53.040;18.488;2023-02-14T01:07:42;103105.53;;;3.53;100.00
53619;BME280;39505;53.040;18.488;2023-02-14T01:07:54;103109.06;;;3.53;100.00
53619;BME280;39505;53.040;18.488;2023-02-14T01:08:07;103108.19;;;3.53;100.00
53619;BME280;39505;53.040;18.488;2023-02-14T01:08:20;103112.59;;;3.54;100.00
53619;BME280;39505;53.040;18.488;2023-02-14T01:08:33;103110.84;;;3.53;100.00
53619;BME280;39505;53.040;18.488;2023-02-14T01:08:46;103113.50;;;3.53;100.00
53619;BME280;39505;53.040;18.488;2023-02-14T01:08:59;103109.94;;;3.54;100.00
53619;BME280;39505;53.040;18.488;2023-02-14T01:09:13;103105.53;;;3.53;100.00
53619;BME280;39505;53.040;18.488;2023-02-14T01:09:26;103111.72;;;3.53;100.00
53619;BME280;39505;53.040;18.488;2023-02-14T01:09:39;103109.94;;;3.54;100.00
53619;BME280;39505;53.040;18.488;2023-02-14T01:09:52;103105.50;;;3.54;100.00
53619;BME280;39505;53.040;18.488;2023-02-14T01:10:05;103102.88;;;3.53;100.00
53619;BME280;39505;53.040;18.488;2023-02-14T01:10:19;103106.41;;;3.53;100.00
53619;BME280;39505;53.040;18.488;2023-02-14T01:10:35;103113.50;;;3.53;100.00